createdAt,value
2023-09-27T00:00:21.902Z,3.83
2023-09-27T00:02:48.435Z,4.32
2023-09-27T00:05:15.312Z,4.00
2023-09-27T00:07:42.673Z,3.55
2023-09-27T00:10:10.897Z,4.65
2023-09-27T00:12:38.400Z,4.45
2023-09-27T00:15:07.126Z,4.82
2023-09-27T00:17:33.670Z,4.15
2023-09-27T00:20:03.877Z,4.15
2023-09-27T00:22:30.366Z,4.00
2023-09-27T00:24:57.972Z,4.32
2023-09-27T00:27:25.675Z,3.88
2023-09-27T00:29:52.739Z,3.88
2023-09-27T00:32:19.705Z,3.90
2023-09-27T00:34:46.207Z,3.92
2023-09-27T00:37:12.716Z,3.55
2023-09-27T00:39:43.033Z,4.38
2023-09-27T00:42:09.567Z,3.80
2023-09-27T00:44:36.214Z,3.58
2023-09-27T00:47:04.985Z,3.67
2023-09-27T00:49:32.096Z,3.45
2023-09-27T00:51:59.364Z,3.80
2023-09-27T00:54:26.770Z,4.32
2023-09-27T00:56:53.867Z,3.88
2023-09-27T00:59:20.677Z,4.25
2023-09-27T01:01:47.542Z,3.70
2023-09-27T01:04:14.922Z,4.07
2023-09-27T01:06:42.840Z,3.90
2023-09-27T01:09:09.295Z,4.00
2023-09-27T01:11:35.821Z,3.90
2023-09-27T01:14:02.345Z,3.40
2023-09-27T01:16:28.884Z,4.05
2023-09-27T01:18:55.959Z,4.10
2023-09-27T01:21:22.496Z,4.03
2023-09-27T01:23:51.327Z,3.58
2023-09-27T01:26:19.599Z,3.70
2023-09-27T01:28:47.541Z,4.20
2023-09-27T01:31:14.368Z,3.75
2023-09-27T01:33:41.479Z,3.72
2023-09-27T01:36:08.773Z,3.15
2023-09-27T01:38:35.509Z,3.10
2023-09-27T01:41:02.278Z,3.17
2023-09-27T01:43:29.163Z,3.63
2023-09-27T01:45:55.758Z,3.80
2023-09-27T01:48:23.045Z,3.35
2023-09-27T01:50:49.984Z,3.30
2023-09-27T01:53:16.561Z,3.67
2023-09-27T01:55:43.054Z,3.40
2023-09-27T01:58:09.550Z,3.30
2023-09-27T02:00:37.167Z,2.95
2023-09-27T02:03:04.412Z,3.47
2023-09-27T02:05:31.869Z,3.13
2023-09-27T02:07:59.032Z,3.53
2023-09-27T02:10:25.963Z,3.35
2023-09-27T02:12:52.533Z,3.28
2023-09-27T02:15:19.254Z,2.95
2023-09-27T02:17:45.919Z,3.45
2023-09-27T02:20:19.040Z,3.33
2023-09-27T02:22:48.827Z,3.78
2023-09-27T02:25:15.958Z,3.20
2023-09-27T02:27:43.441Z,3.55
2023-09-27T02:30:15.023Z,3.47
2023-09-27T02:32:43.075Z,3.05
2023-09-27T02:35:10.812Z,2.88
2023-09-27T02:37:39.288Z,3.25
2023-09-27T02:40:15.668Z,3.45
2023-09-27T02:42:45.435Z,3.08
2023-09-27T02:45:13.122Z,3.10
2023-09-27T02:47:41.134Z,2.92
2023-09-27T02:50:11.863Z,4.40
2023-09-27T02:52:41.552Z,3.28
2023-09-27T02:55:11.556Z,3.55
2023-09-27T02:57:38.252Z,3.40
2023-09-27T03:00:07.316Z,3.50
2023-09-27T03:02:34.669Z,3.28
2023-09-27T03:05:01.603Z,3.28
2023-09-27T03:07:28.238Z,3.15
2023-09-27T03:09:54.737Z,2.95
2023-09-27T03:12:21.198Z,3.30
2023-09-27T03:14:48.076Z,3.65
2023-09-27T03:17:14.580Z,3.08
2023-09-27T03:19:41.052Z,3.40
2023-09-27T03:22:08.257Z,2.65
2023-09-27T03:24:35.405Z,3.35
2023-09-27T03:27:04.109Z,2.70
2023-09-27T03:29:31.655Z,2.50
2023-09-27T03:31:58.281Z,2.80
2023-09-27T03:34:24.800Z,2.97
2023-09-27T03:36:57.216Z,2.70
2023-09-27T03:39:23.960Z,3.03
2023-09-27T03:41:51.840Z,3.00
2023-09-27T03:44:18.508Z,3.10
2023-09-27T03:46:45.017Z,2.60
2023-09-27T03:49:14.021Z,2.88
2023-09-27T03:51:40.599Z,2.92
2023-09-27T03:54:07.300Z,2.95
2023-09-27T03:56:33.820Z,2.83
2023-09-27T03:59:00.481Z,2.88
2023-09-27T04:01:27.242Z,2.80
2023-09-27T04:03:53.828Z,2.72
2023-09-27T04:06:21.046Z,3.10
2023-09-27T04:08:47.555Z,2.92
2023-09-27T04:11:14.133Z,3.22
2023-09-27T04:13:41.161Z,2.95
2023-09-27T04:16:07.688Z,2.47
2023-09-27T04:18:34.352Z,2.92
2023-09-27T04:21:10.400Z,2.53
2023-09-27T04:23:37.526Z,2.38
2023-09-27T04:26:07.632Z,2.90
2023-09-27T04:28:34.505Z,2.58
2023-09-27T04:31:01.618Z,2.80
2023-09-27T04:33:28.276Z,2.95
2023-09-27T04:35:54.826Z,2.90
2023-09-27T04:38:22.297Z,2.58
2023-09-27T04:40:48.929Z,2.50
2023-09-27T04:43:15.376Z,2.83
2023-09-27T04:45:41.950Z,2.55
2023-09-27T04:48:08.489Z,2.97
2023-09-27T04:50:35.833Z,2.53
2023-09-27T04:53:02.487Z,2.50
2023-09-27T04:55:29.523Z,2.45
2023-09-27T04:57:56.005Z,2.33
2023-09-27T05:00:23.285Z,3.17
2023-09-27T05:02:51.323Z,2.63
2023-09-27T05:05:18.024Z,2.67
2023-09-27T05:07:44.954Z,2.53
2023-09-27T05:10:12.108Z,2.60
2023-09-27T05:12:39.863Z,2.40
2023-09-27T05:15:08.658Z,2.47
2023-09-27T05:17:35.265Z,2.58
2023-09-27T05:20:02.121Z,2.70
2023-09-27T05:22:28.594Z,2.67
2023-09-27T05:24:55.069Z,2.58
2023-09-27T05:27:22.000Z,2.92
2023-09-27T05:29:48.701Z,2.15
2023-09-27T05:32:15.222Z,2.65
2023-09-27T05:34:41.739Z,2.42
2023-09-27T05:37:08.207Z,2.50
2023-09-27T05:39:34.690Z,2.55
2023-09-27T05:42:01.164Z,2.70
2023-09-27T05:44:27.778Z,2.58
2023-09-27T05:46:55.059Z,2.90
2023-09-27T05:49:21.861Z,2.22
2023-09-27T05:51:48.367Z,2.45
2023-09-27T05:54:14.900Z,2.47
2023-09-27T05:56:41.478Z,2.65
2023-09-27T05:59:10.256Z,2.45
2023-09-27T06:01:37.049Z,2.35
2023-09-27T06:04:04.106Z,2.83
2023-09-27T06:06:30.902Z,2.92
2023-09-27T06:08:57.490Z,2.80
2023-09-27T06:11:24.069Z,2.15
2023-09-27T06:13:50.656Z,2.55
2023-09-27T06:16:21.069Z,2.50
2023-09-27T06:18:48.139Z,2.75
2023-09-27T06:21:15.056Z,2.45
2023-09-27T06:23:42.081Z,2.30
2023-09-27T06:26:08.925Z,2.55
2023-09-27T06:28:39.105Z,2.30
2023-09-27T06:31:07.338Z,2.15
2023-09-27T06:33:35.628Z,2.60
2023-09-27T06:36:02.423Z,2.10
2023-09-27T06:38:28.938Z,2.38
2023-09-27T06:40:55.994Z,2.47
2023-09-27T06:43:22.856Z,2.70
2023-09-27T06:45:50.299Z,1.98
2023-09-27T06:48:19.705Z,2.33
2023-09-27T06:50:47.997Z,2.13
2023-09-27T06:53:23.519Z,2.20
2023-09-27T06:55:54.813Z,2.35
2023-09-27T06:58:25.947Z,2.10
2023-09-27T07:00:53.850Z,2.60
2023-09-27T07:03:26.039Z,3.17
2023-09-27T07:05:53.210Z,2.60
2023-09-27T07:08:19.968Z,2.33
2023-09-27T07:10:46.601Z,2.90
2023-09-27T07:13:13.085Z,2.28
2023-09-27T07:15:39.862Z,2.70
2023-09-27T07:18:07.310Z,3.17
2023-09-27T07:20:35.576Z,4.65
2023-09-27T07:23:05.520Z,5.13
2023-09-27T07:25:35.645Z,4.10
2023-09-27T07:28:06.508Z,4.40
2023-09-27T07:30:36.222Z,4.40
2023-09-27T07:33:10.285Z,3.92
2023-09-27T07:35:42.916Z,4.50
2023-09-27T07:38:11.699Z,4.05
2023-09-27T07:40:38.213Z,4.10
2023-09-27T07:43:04.769Z,4.22
2023-09-27T07:45:33.517Z,4.18
2023-09-27T07:48:00.657Z,4.10
2023-09-27T07:50:29.621Z,4.60
2023-09-27T07:52:56.599Z,11.57
2023-09-27T07:55:23.199Z,10.80
2023-09-27T07:57:50.871Z,8.50
2023-09-27T08:00:20.092Z,6.10
2023-09-27T08:02:47.284Z,5.07
2023-09-27T08:05:17.663Z,4.80
2023-09-27T08:07:48.242Z,4.55
2023-09-27T08:12:44.879Z,4.55
2023-09-27T08:15:13.706Z,4.20
2023-09-27T08:17:40.782Z,4.43
2023-09-27T08:20:10.811Z,4.53
2023-09-27T08:22:40.318Z,4.30
2023-09-27T08:25:10.319Z,4.38
2023-09-27T08:27:37.875Z,4.03
2023-09-27T08:30:07.156Z,4.40
2023-09-27T08:32:34.896Z,4.47
2023-09-27T08:35:03.638Z,4.00
2023-09-27T08:37:30.225Z,4.18
2023-09-27T08:39:57.076Z,4.90
2023-09-27T08:42:25.070Z,4.25
2023-09-27T08:44:54.102Z,4.03
2023-09-27T08:47:21.093Z,5.03
2023-09-27T08:49:51.243Z,4.32
2023-09-27T08:52:18.749Z,4.40
2023-09-27T08:54:45.262Z,4.35
2023-09-27T08:57:12.993Z,4.45
2023-09-27T08:59:40.492Z,3.75
2023-09-27T09:02:07.995Z,4.53
2023-09-27T09:04:34.646Z,4.03
2023-09-27T09:07:03.890Z,4.20
2023-09-27T09:09:31.753Z,3.70
2023-09-27T09:12:01.944Z,4.15
2023-09-27T09:14:50.776Z,4.20
2023-09-27T09:17:20.734Z,5.45
2023-09-27T09:20:19.140Z,4.97
2023-09-27T09:22:47.222Z,5.22
2023-09-27T09:25:13.776Z,5.63
2023-09-27T09:27:42.841Z,5.85
2023-09-27T09:30:13.765Z,5.50
2023-09-27T09:32:52.001Z,5.22
2023-09-27T09:35:32.658Z,4.95
2023-09-27T09:38:00.331Z,5.28
2023-09-27T09:40:26.884Z,5.55
2023-09-27T09:42:53.538Z,4.78
2023-09-27T09:45:21.254Z,4.88
2023-09-27T09:47:47.871Z,5.50
2023-09-27T09:50:18.553Z,5.53
2023-09-27T09:52:59.361Z,5.60
2023-09-27T09:55:52.070Z,5.03
2023-09-27T09:58:24.264Z,4.40
2023-09-27T10:00:55.003Z,4.97
2023-09-27T10:03:23.614Z,4.22
2023-09-27T10:05:55.079Z,4.93
2023-09-27T10:08:21.722Z,4.72
2023-09-27T10:10:48.403Z,4.40
2023-09-27T10:13:15.428Z,4.10
2023-09-27T10:15:43.693Z,3.70
2023-09-27T10:18:22.650Z,4.05
2023-09-27T10:21:04.239Z,3.78
2023-09-27T10:23:34.894Z,4.10
2023-09-27T10:26:21.215Z,4.00
2023-09-27T10:29:05.938Z,4.70
2023-09-27T10:31:33.375Z,4.22
2023-09-27T10:34:00.523Z,4.28
2023-09-27T10:36:28.863Z,3.90
2023-09-27T10:38:55.360Z,4.20
2023-09-27T10:41:34.652Z,3.97
2023-09-27T10:44:03.240Z,3.97
2023-09-27T10:46:50.026Z,4.18
2023-09-27T10:49:25.927Z,3.88
2023-09-27T10:52:04.479Z,3.50
2023-09-27T10:54:34.828Z,4.30
2023-09-27T10:57:03.472Z,3.92
2023-09-27T10:59:30.845Z,3.55
2023-09-27T11:01:57.929Z,4.60
2023-09-27T11:04:25.845Z,3.70
2023-09-27T11:06:53.062Z,3.45
2023-09-27T11:09:20.698Z,4.28
2023-09-27T11:11:49.202Z,3.83
2023-09-27T11:14:35.145Z,3.55
2023-09-27T11:17:16.630Z,3.33
2023-09-27T11:19:43.203Z,4.28
2023-09-27T11:22:09.877Z,4.30
2023-09-27T11:24:42.727Z,4.00
2023-09-27T11:27:09.657Z,4.88
2023-09-27T11:29:37.043Z,4.32
2023-09-27T11:32:03.732Z,3.80
2023-09-27T11:34:31.324Z,3.97
2023-09-27T11:37:03.877Z,4.57
2023-09-27T11:39:51.670Z,4.15
2023-09-27T11:42:22.922Z,3.97
2023-09-27T11:45:10.944Z,3.70
2023-09-27T11:47:50.733Z,4.07
2023-09-27T11:50:18.775Z,4.80
2023-09-27T11:52:49.794Z,4.32
2023-09-27T11:55:17.865Z,4.00
2023-09-27T11:57:44.604Z,4.05
2023-09-27T12:00:16.553Z,4.75
2023-09-27T12:02:52.699Z,4.55
2023-09-27T12:05:22.912Z,4.22
2023-09-27T12:07:49.725Z,4.63
2023-09-27T12:10:17.301Z,4.32
2023-09-27T12:12:44.230Z,4.18
2023-09-27T12:15:11.635Z,4.03
2023-09-27T12:17:39.311Z,3.53
2023-09-27T12:20:09.220Z,3.53
2023-09-27T12:22:40.418Z,3.83
2023-09-27T12:25:07.840Z,3.97
2023-09-27T12:27:35.049Z,3.80
2023-09-27T12:30:02.061Z,3.67
2023-09-27T12:32:28.704Z,3.20
2023-09-27T12:34:55.361Z,3.80
2023-09-27T12:37:23.113Z,3.63
2023-09-27T12:39:49.831Z,3.83
2023-09-27T12:42:16.341Z,3.70
2023-09-27T12:44:42.913Z,3.55
2023-09-27T12:47:09.522Z,3.90
2023-09-27T12:49:36.978Z,3.70
2023-09-27T12:52:04.409Z,3.47
2023-09-27T12:54:31.107Z,3.70
2023-09-27T12:56:59.143Z,4.88
2023-09-27T12:59:27.852Z,4.85
2023-09-27T13:01:55.015Z,4.15
2023-09-27T13:04:21.798Z,4.18
2023-09-27T13:06:48.389Z,4.00
2023-09-27T13:09:18.375Z,3.92
2023-09-27T13:11:45.060Z,4.03
2023-09-27T13:14:11.866Z,4.72
2023-09-27T13:16:38.428Z,4.55
2023-09-27T13:19:05.025Z,3.85
2023-09-27T13:21:31.506Z,3.58
2023-09-27T13:23:58.021Z,4.07
2023-09-27T13:26:32.696Z,3.85
2023-09-27T13:28:59.438Z,4.22
2023-09-27T13:31:31.929Z,4.18
2023-09-27T13:34:09.508Z,3.83
2023-09-27T13:36:40.390Z,4.13
2023-09-27T13:39:07.481Z,4.20
2023-09-27T13:41:47.378Z,4.03
2023-09-27T13:44:14.503Z,4.07
2023-09-27T13:46:41.605Z,4.32
2023-09-27T13:49:08.796Z,4.18
2023-09-27T13:51:38.356Z,4.50
2023-09-27T13:54:06.199Z,4.38
2023-09-27T13:56:32.912Z,4.45
2023-09-27T13:59:00.387Z,4.28
2023-09-27T14:01:27.324Z,4.65
2023-09-27T14:03:54.052Z,4.85
2023-09-27T14:06:20.965Z,4.30
2023-09-27T14:08:50.739Z,4.18
2023-09-27T14:11:17.926Z,4.40
2023-09-27T14:13:46.497Z,4.00
2023-09-27T14:16:14.120Z,3.92
2023-09-27T14:18:41.784Z,3.75
2023-09-27T14:21:08.400Z,3.92
2023-09-27T14:23:37.869Z,3.65
2023-09-27T14:26:04.697Z,4.20
2023-09-27T14:28:31.203Z,3.65
2023-09-27T14:30:57.836Z,4.18
2023-09-27T14:33:24.851Z,3.75
2023-09-27T14:35:52.757Z,3.38
2023-09-27T14:38:19.811Z,4.68
2023-09-27T14:40:46.729Z,4.18
2023-09-27T14:43:13.567Z,4.20
2023-09-27T14:45:40.424Z,3.60
2023-09-27T14:48:07.316Z,3.60
2023-09-27T14:50:33.960Z,3.50
2023-09-27T14:53:00.794Z,3.40
2023-09-27T14:55:28.095Z,3.30
2023-09-27T14:57:54.901Z,3.85
2023-09-27T15:00:23.639Z,3.33
2023-09-27T15:02:51.220Z,3.22
2023-09-27T15:05:17.801Z,3.53
2023-09-27T15:07:44.363Z,3.60
2023-09-27T15:10:11.248Z,3.33
2023-09-27T15:12:39.041Z,3.20
2023-09-27T15:15:09.593Z,3.47
2023-09-27T15:17:45.571Z,3.35
2023-09-27T15:20:13.906Z,3.40
2023-09-27T15:22:42.112Z,3.85
2023-09-27T15:25:10.135Z,3.05
2023-09-27T15:27:36.696Z,3.28
2023-09-27T15:30:03.448Z,3.17
2023-09-27T15:32:30.285Z,3.10
2023-09-27T15:34:56.889Z,3.20
2023-09-27T15:37:23.700Z,3.10
2023-09-27T15:39:50.173Z,3.25
2023-09-27T15:42:16.614Z,2.80
2023-09-27T15:44:43.199Z,2.67
2023-09-27T15:47:13.051Z,2.80
2023-09-27T15:49:40.159Z,3.15
2023-09-27T15:52:06.828Z,3.50
2023-09-27T15:54:34.238Z,3.13
2023-09-27T15:57:01.050Z,3.10
2023-09-27T15:59:27.695Z,10.98
2023-09-27T16:01:57.433Z,20.77
2023-09-27T16:04:24.789Z,36.78
2023-09-27T16:06:53.008Z,43.30
2023-09-27T16:09:19.636Z,68.57
2023-09-27T16:11:46.488Z,72.07
2023-09-27T16:14:13.235Z,65.10
2023-09-27T16:16:39.863Z,57.15
2023-09-27T16:19:06.954Z,51.33
2023-09-27T16:21:33.489Z,51.30
2023-09-27T16:24:01.297Z,46.05
2023-09-27T16:26:28.216Z,54.60
2023-09-27T16:28:54.778Z,48.20
2023-09-27T16:31:21.818Z,61.00
2023-09-27T16:33:48.542Z,68.75
2023-09-27T16:36:18.445Z,55.28
2023-09-27T16:38:45.232Z,50.95
2023-09-27T16:41:11.753Z,47.75
2023-09-27T16:43:40.688Z,46.47
2023-09-27T16:46:08.482Z,47.45
2023-09-27T16:48:36.030Z,41.72
2023-09-27T16:51:02.975Z,38.97
2023-09-27T16:53:29.614Z,34.10
2023-09-27T16:55:56.309Z,29.58
2023-09-27T16:58:26.543Z,30.98
2023-09-27T17:00:53.271Z,25.65
2023-09-27T17:03:20.769Z,25.02
2023-09-27T17:05:47.697Z,23.42
2023-09-27T17:08:14.475Z,19.85
2023-09-27T17:10:41.436Z,20.95
2023-09-27T17:13:09.317Z,19.70
2023-09-27T17:15:35.833Z,17.65
2023-09-27T17:18:02.556Z,17.95
2023-09-27T17:20:29.135Z,18.67
2023-09-27T17:22:55.667Z,15.25
2023-09-27T17:25:22.366Z,14.00
2023-09-27T17:27:48.957Z,14.25
2023-09-27T17:30:16.658Z,15.25
2023-09-27T17:32:44.464Z,18.45
2023-09-27T17:35:11.332Z,17.80
2023-09-27T17:37:38.165Z,16.45
2023-09-27T17:40:09.057Z,14.48
2023-09-27T17:42:37.391Z,13.65
2023-09-27T17:45:04.411Z,12.70
2023-09-27T17:47:31.106Z,13.02
2023-09-27T17:49:57.724Z,13.57
2023-09-27T17:52:24.272Z,14.05
2023-09-27T17:54:50.795Z,14.57
2023-09-27T17:57:18.445Z,12.95
2023-09-27T17:59:46.523Z,12.52
2023-09-27T18:02:13.107Z,12.95
2023-09-27T18:07:06.598Z,11.60
2023-09-27T18:09:36.976Z,12.60
2023-09-27T18:12:03.752Z,11.25
2023-09-27T18:14:30.272Z,10.98
2023-09-27T18:16:56.979Z,11.77
2023-09-27T18:19:23.511Z,11.15
2023-09-27T18:21:50.206Z,11.35
2023-09-27T18:24:16.772Z,11.55
2023-09-27T18:26:44.765Z,11.68
2023-09-27T18:29:11.515Z,11.48
2023-09-27T18:31:40.027Z,10.85
2023-09-27T18:34:06.753Z,11.07
2023-09-27T18:36:34.240Z,11.10
2023-09-27T18:39:01.248Z,10.73
2023-09-27T18:41:28.483Z,11.27
2023-09-27T18:43:55.468Z,11.52
2023-09-27T18:46:24.512Z,10.40
2023-09-27T18:48:51.830Z,11.07
2023-09-27T18:51:22.349Z,10.55
2023-09-27T18:53:49.471Z,11.23
2023-09-27T18:56:16.074Z,9.48
2023-09-27T18:58:42.842Z,10.63
2023-09-27T19:01:09.451Z,9.68
2023-09-27T19:03:36.010Z,10.20
2023-09-27T19:06:02.557Z,9.52
2023-09-27T19:08:29.048Z,9.77
2023-09-27T19:10:56.317Z,9.50
2023-09-27T19:13:22.834Z,9.27
2023-09-27T19:15:49.542Z,8.68
2023-09-27T19:18:16.139Z,9.55
2023-09-27T19:20:42.682Z,9.55
2023-09-27T19:23:09.450Z,8.32
2023-09-27T19:25:35.999Z,8.77
2023-09-27T19:28:03.481Z,8.68
2023-09-27T19:30:31.927Z,8.32
2023-09-27T19:32:58.497Z,8.20
2023-09-27T19:35:25.122Z,8.75
2023-09-27T19:37:52.118Z,9.32
2023-09-27T19:40:18.836Z,8.50
2023-09-27T19:42:47.742Z,8.18
2023-09-27T19:45:14.427Z,8.20
2023-09-27T19:50:44.354Z,7.88
2023-09-27T19:53:10.952Z,8.05
2023-09-27T19:55:37.783Z,8.43
2023-09-27T19:58:04.503Z,8.50
2023-09-27T20:00:31.901Z,7.80
2023-09-27T20:02:58.496Z,7.68
2023-09-27T20:05:27.751Z,7.65
2023-09-27T20:07:54.265Z,7.55
2023-09-27T20:10:20.775Z,7.55
2023-09-27T20:12:47.267Z,7.55
2023-09-27T20:15:13.886Z,7.53
2023-09-27T20:17:40.839Z,7.88
2023-09-27T20:20:08.721Z,7.40
2023-09-27T20:22:35.260Z,6.82
2023-09-27T20:25:03.826Z,7.47
2023-09-27T20:27:30.356Z,7.30
2023-09-27T20:29:56.910Z,7.60
2023-09-27T20:32:23.571Z,6.90
2023-09-27T20:34:50.443Z,7.55
2023-09-27T20:37:17.388Z,7.72
2023-09-27T20:39:43.956Z,8.00
2023-09-27T20:42:10.460Z,7.22
2023-09-27T20:44:37.321Z,7.38
2023-09-27T20:47:03.873Z,7.07
2023-09-27T20:49:30.583Z,7.68
2023-09-27T20:51:57.189Z,7.25
2023-09-27T20:54:24.054Z,7.07
2023-09-27T20:56:51.538Z,7.10
2023-09-27T20:59:18.142Z,7.50
2023-09-27T21:01:45.801Z,7.60
2023-09-27T21:04:15.656Z,6.75
2023-09-27T21:06:43.119Z,7.13
2023-09-27T21:09:11.015Z,7.10
2023-09-27T21:11:37.549Z,6.80
2023-09-27T21:14:04.391Z,7.13
2023-09-27T21:16:32.630Z,6.65
2023-09-27T21:19:00.174Z,6.53
2023-09-27T21:21:26.651Z,6.32
2023-09-27T21:23:53.822Z,6.65
2023-09-27T21:26:20.729Z,6.43
2023-09-27T21:28:47.477Z,6.25
2023-09-27T21:31:17.221Z,6.78
2023-09-27T21:33:44.250Z,6.60
2023-09-27T21:36:11.446Z,5.95
2023-09-27T21:38:38.482Z,5.95
2023-09-27T21:41:05.327Z,6.10
2023-09-27T21:43:33.926Z,6.05
2023-09-27T21:46:01.444Z,5.90
2023-09-27T21:48:28.058Z,5.68
2023-09-27T21:50:54.674Z,5.68
2023-09-27T21:53:21.186Z,5.78
2023-09-27T21:55:47.702Z,6.18
2023-09-27T21:58:14.232Z,5.75
2023-09-27T22:00:40.736Z,5.78
2023-09-27T22:03:09.302Z,5.88
2023-09-27T22:05:36.072Z,6.05
2023-09-27T22:08:02.779Z,5.75
2023-09-27T22:10:43.515Z,6.18
2023-09-27T22:13:23.576Z,6.10
2023-09-27T22:15:54.787Z,5.70
2023-09-27T22:18:23.716Z,5.25
2023-09-27T22:20:50.632Z,6.25
2023-09-27T22:23:40.454Z,6.00
2023-09-27T22:26:17.016Z,5.90
2023-09-27T22:28:49.303Z,5.85
2023-09-27T22:31:27.813Z,5.55
2023-09-27T22:33:57.679Z,5.82
2023-09-27T22:36:27.523Z,5.75
2023-09-27T22:38:54.028Z,5.60
2023-09-27T22:41:21.514Z,5.30
2023-09-27T22:43:53.406Z,5.50
2023-09-27T22:46:23.004Z,5.90
2023-09-27T22:48:51.578Z,6.00
2023-09-27T22:51:18.340Z,4.80
2023-09-27T22:53:45.882Z,5.47
2023-09-27T22:56:12.497Z,5.53
2023-09-27T22:58:39.073Z,5.18
2023-09-27T23:01:21.810Z,5.82
2023-09-27T23:03:49.022Z,5.13
2023-09-27T23:06:16.446Z,5.18
2023-09-27T23:08:46.756Z,5.60
2023-09-27T23:11:13.630Z,5.00
2023-09-27T23:13:49.662Z,5.05
2023-09-27T23:16:34.467Z,4.93
2023-09-27T23:19:05.619Z,6.00
2023-09-27T23:21:33.412Z,5.15
2023-09-27T23:24:26.575Z,4.80
2023-09-27T23:26:53.378Z,5.50
2023-09-27T23:29:30.088Z,4.90
2023-09-27T23:32:00.078Z,5.00
2023-09-27T23:34:28.172Z,4.60
2023-09-27T23:37:10.032Z,4.88
2023-09-27T23:39:45.705Z,4.88
2023-09-27T23:42:28.795Z,4.78
2023-09-27T23:45:09.241Z,4.75
2023-09-27T23:47:44.232Z,4.30
2023-09-27T23:50:12.453Z,4.70
2023-09-27T23:52:42.248Z,4.85
2023-09-27T23:55:09.863Z,4.70
2023-09-27T23:57:37.069Z,4.28
